createdAt,value
2023-05-17T00:00:15.173Z,9.60
2023-05-17T00:02:42.104Z,9.50
2023-05-17T00:05:11.623Z,9.40
2023-05-17T00:07:38.453Z,9.30
2023-05-17T00:10:05.756Z,9.40
2023-05-17T00:12:32.599Z,9.40
2023-05-17T00:14:59.475Z,9.30
2023-05-17T00:17:26.273Z,9.40
2023-05-17T00:19:53.125Z,9.50
2023-05-17T00:22:20.017Z,9.50
2023-05-17T00:24:46.814Z,9.50
2023-05-17T00:27:13.639Z,9.40
2023-05-17T00:29:40.544Z,9.50
2023-05-17T00:32:07.643Z,9.50
2023-05-17T00:34:34.517Z,9.30
2023-05-17T00:37:01.310Z,9.40
2023-05-17T00:39:28.105Z,9.40
2023-05-17T00:41:55.004Z,9.40
2023-05-17T00:44:21.835Z,9.30
2023-05-17T00:46:50.485Z,9.30
2023-05-17T00:49:17.625Z,9.40
2023-05-17T00:51:45.109Z,9.40
2023-05-17T00:54:12.289Z,9.40
2023-05-17T00:56:39.475Z,9.30
2023-05-17T00:59:07.114Z,9.40
2023-05-17T01:01:35.775Z,9.30
2023-05-17T01:04:02.900Z,9.40
2023-05-17T01:06:29.778Z,9.40
2023-05-17T01:08:56.609Z,9.40
2023-05-17T01:11:42.069Z,9.40
2023-05-17T01:14:13.754Z,9.30
2023-05-17T01:16:56.293Z,9.30
2023-05-17T01:19:41.891Z,9.40
2023-05-17T01:22:28.627Z,9.40
2023-05-17T01:25:11.210Z,9.30
2023-05-17T01:27:41.568Z,9.40
2023-05-17T01:30:11.979Z,9.40
2023-05-17T01:32:43.132Z,9.40
2023-05-17T01:35:14.721Z,9.30
2023-05-17T01:37:41.663Z,9.40
2023-05-17T01:40:10.213Z,9.30
2023-05-17T01:42:42.841Z,9.30
2023-05-17T01:45:23.478Z,9.30
2023-05-17T01:47:53.470Z,9.40
2023-05-17T01:50:24.163Z,9.40
2023-05-17T01:52:55.264Z,9.30
2023-05-17T01:55:43.521Z,9.40
2023-05-17T01:58:12.766Z,9.50
2023-05-17T02:00:41.615Z,9.40
2023-05-17T02:03:13.330Z,9.50
2023-05-17T02:05:40.155Z,9.50
2023-05-17T02:08:06.994Z,9.50
2023-05-17T02:10:33.810Z,9.50
2023-05-17T02:13:00.754Z,9.50
2023-05-17T02:15:27.900Z,9.40
2023-05-17T02:17:55.038Z,9.40
2023-05-17T02:20:22.280Z,9.30
2023-05-17T02:22:49.101Z,9.30
2023-05-17T02:25:16.438Z,9.40
2023-05-17T02:27:43.221Z,9.30
2023-05-17T02:30:10.360Z,9.40
2023-05-17T02:32:37.255Z,9.40
2023-05-17T02:35:04.429Z,9.50
2023-05-17T02:37:31.219Z,9.50
2023-05-17T02:39:57.997Z,9.50
2023-05-17T02:42:24.882Z,9.40
2023-05-17T02:44:54.218Z,9.30
2023-05-17T02:47:21.332Z,9.30
2023-05-17T02:49:48.278Z,9.30
2023-05-17T02:52:16.266Z,9.20
2023-05-17T02:54:45.857Z,9.30
2023-05-17T02:57:12.693Z,9.30
2023-05-17T02:59:39.537Z,9.30
2023-05-17T03:02:06.813Z,9.30
2023-05-17T03:04:34.122Z,9.30
2023-05-17T03:07:00.975Z,9.30
2023-05-17T03:09:29.920Z,9.20
2023-05-17T03:11:56.756Z,9.10
2023-05-17T03:14:23.564Z,9.20
2023-05-17T03:16:50.799Z,9.10
2023-05-17T03:19:17.836Z,9.20
2023-05-17T03:21:44.799Z,9.20
2023-05-17T03:24:11.649Z,9.10
2023-05-17T03:26:38.494Z,9.10
2023-05-17T03:29:05.297Z,9.10
2023-05-17T03:31:32.262Z,9.00
2023-05-17T03:33:59.140Z,9.10
2023-05-17T03:36:26.264Z,9.10
2023-05-17T03:38:53.053Z,9.20
2023-05-17T03:41:21.015Z,9.30
2023-05-17T03:43:47.786Z,9.10
2023-05-17T03:46:14.632Z,9.10
2023-05-17T03:48:41.509Z,9.00
2023-05-17T03:51:08.551Z,9.10
2023-05-17T03:53:41.105Z,9.10
2023-05-17T03:56:08.053Z,9.00
2023-05-17T03:58:34.888Z,9.10
2023-05-17T04:01:02.119Z,9.20
2023-05-17T04:03:28.992Z,9.20
2023-05-17T04:06:06.265Z,9.20
2023-05-17T04:08:34.279Z,9.20
2023-05-17T04:11:09.943Z,9.20
2023-05-17T04:13:37.723Z,9.30
2023-05-17T04:16:04.851Z,9.30
2023-05-17T04:18:34.299Z,9.30
2023-05-17T04:21:01.413Z,9.40
2023-05-17T04:23:28.251Z,9.30
2023-05-17T04:25:55.078Z,9.40
2023-05-17T04:28:22.085Z,9.40
2023-05-17T04:30:48.899Z,9.40
2023-05-17T04:33:15.917Z,9.40
2023-05-17T04:35:43.120Z,9.50
2023-05-17T04:38:10.061Z,9.50
2023-05-17T04:40:37.245Z,9.50
2023-05-17T04:43:04.136Z,9.60
2023-05-17T04:45:30.953Z,9.60
2023-05-17T04:47:59.566Z,9.60
2023-05-17T04:50:26.716Z,9.70
2023-05-17T04:52:53.538Z,9.70
2023-05-17T04:55:20.388Z,9.70
2023-05-17T04:57:47.218Z,9.70
2023-05-17T05:00:15.801Z,9.60
2023-05-17T05:02:42.655Z,9.70
2023-05-17T05:05:09.910Z,9.80
2023-05-17T05:07:38.018Z,9.80
2023-05-17T05:10:05.294Z,9.90
2023-05-17T05:12:32.127Z,10.00
2023-05-17T05:15:00.737Z,10.10
2023-05-17T05:17:29.598Z,10.20
2023-05-17T05:19:56.573Z,10.20
2023-05-17T05:22:23.482Z,10.30
2023-05-17T05:24:50.276Z,10.40
2023-05-17T05:27:17.170Z,10.40
2023-05-17T05:29:44.017Z,10.50
2023-05-17T05:32:10.866Z,10.60
2023-05-17T05:34:39.127Z,10.60
2023-05-17T05:37:05.996Z,10.80
2023-05-17T05:39:32.840Z,10.70
2023-05-17T05:41:59.665Z,10.60
2023-05-17T05:44:26.456Z,10.70
2023-05-17T05:46:53.317Z,10.70
2023-05-17T05:49:20.892Z,10.60
2023-05-17T05:51:47.742Z,10.60
2023-05-17T05:54:14.788Z,10.70
2023-05-17T05:56:41.573Z,10.80
2023-05-17T05:59:08.372Z,10.70
2023-05-17T06:01:35.236Z,10.80
2023-05-17T06:04:02.090Z,10.80
2023-05-17T06:06:29.270Z,10.80
2023-05-17T06:08:58.208Z,11.00
2023-05-17T06:11:26.460Z,11.10
2023-05-17T06:13:53.255Z,11.10
2023-05-17T06:16:20.095Z,11.10
2023-05-17T06:18:50.225Z,11.10
2023-05-17T06:21:18.645Z,11.10
2023-05-17T06:23:45.575Z,11.10
2023-05-17T06:26:12.523Z,11.30
2023-05-17T06:28:39.322Z,11.40
2023-05-17T06:31:06.287Z,11.50
2023-05-17T06:33:33.285Z,11.50
2023-05-17T06:38:27.638Z,11.30
2023-05-17T06:40:55.715Z,11.30
2023-05-17T06:43:22.939Z,11.70
2023-05-17T06:45:50.015Z,11.80
2023-05-17T06:48:17.196Z,11.70
2023-05-17T06:50:44.411Z,11.70
2023-05-17T06:53:11.248Z,11.90
2023-05-17T06:55:38.382Z,12.10
2023-05-17T06:58:05.220Z,11.90
2023-05-17T07:00:32.792Z,12.20
2023-05-17T07:03:00.124Z,12.30
2023-05-17T07:05:29.291Z,12.30
2023-05-17T07:07:58.067Z,12.40
2023-05-17T07:10:26.856Z,12.40
2023-05-17T07:12:53.933Z,12.40
2023-05-17T07:15:20.857Z,12.40
2023-05-17T07:17:47.742Z,12.40
2023-05-17T07:20:14.977Z,12.50
2023-05-17T07:22:42.010Z,12.50
2023-05-17T07:25:09.384Z,12.50
2023-05-17T07:27:36.496Z,12.50
2023-05-17T07:30:04.167Z,12.40
2023-05-17T07:32:31.112Z,12.60
2023-05-17T07:34:58.196Z,12.70
2023-05-17T07:37:24.992Z,12.70
2023-05-17T07:39:51.834Z,12.70
2023-05-17T07:42:18.684Z,12.60
2023-05-17T07:44:45.535Z,12.80
2023-05-17T07:47:12.365Z,12.80
2023-05-17T07:49:39.231Z,12.90
2023-05-17T07:52:06.171Z,12.90
2023-05-17T07:54:32.964Z,13.00
2023-05-17T07:57:00.345Z,13.00
2023-05-17T07:59:27.215Z,13.00
2023-05-17T08:01:54.060Z,13.00
2023-05-17T08:04:20.957Z,13.00
2023-05-17T08:06:50.324Z,13.00
2023-05-17T08:09:17.278Z,13.00
2023-05-17T08:11:46.110Z,13.10
2023-05-17T08:14:16.942Z,13.00
2023-05-17T08:16:45.814Z,13.10
2023-05-17T08:19:13.802Z,13.00
2023-05-17T08:21:42.012Z,12.90
2023-05-17T08:24:09.575Z,12.90
2023-05-17T08:26:36.527Z,13.00
2023-05-17T08:29:04.704Z,13.00
2023-05-17T08:31:32.726Z,12.90
2023-05-17T08:33:59.609Z,13.00
2023-05-17T08:36:26.962Z,12.90
2023-05-17T08:38:54.846Z,12.90
2023-05-17T08:41:21.833Z,12.80
2023-05-17T08:43:52.920Z,12.80
2023-05-17T08:46:24.146Z,12.80
2023-05-17T08:48:52.778Z,12.70
2023-05-17T08:51:20.040Z,12.60
2023-05-17T08:54:06.936Z,12.60
2023-05-17T08:56:36.341Z,12.70
2023-05-17T08:59:06.423Z,12.70
2023-05-17T09:01:33.620Z,12.60
2023-05-17T09:04:00.831Z,12.60
2023-05-17T09:06:27.871Z,12.60
2023-05-17T09:08:55.228Z,12.60
2023-05-17T09:11:34.862Z,12.60
2023-05-17T09:14:06.345Z,12.60
2023-05-17T09:16:37.985Z,12.60
2023-05-17T09:19:07.528Z,12.60
2023-05-17T09:21:35.459Z,12.70
2023-05-17T09:24:07.376Z,12.80
2023-05-17T09:26:43.360Z,12.90
2023-05-17T09:29:11.973Z,13.00
2023-05-17T09:31:39.878Z,13.10
2023-05-17T09:34:08.556Z,13.00
2023-05-17T09:36:37.399Z,13.00
2023-05-17T09:39:06.484Z,12.90
2023-05-17T09:41:41.328Z,12.80
2023-05-17T09:44:12.328Z,12.80
2023-05-17T09:46:48.100Z,12.90
2023-05-17T09:49:16.513Z,12.90
2023-05-17T09:51:45.168Z,13.00
2023-05-17T09:54:12.183Z,12.90
2023-05-17T09:56:39.384Z,13.00
2023-05-17T09:59:13.118Z,13.00
2023-05-17T10:01:42.066Z,13.10
2023-05-17T10:04:10.583Z,13.10
2023-05-17T10:09:46.259Z,13.20
2023-05-17T10:12:22.553Z,13.30
2023-05-17T10:14:51.127Z,13.30
2023-05-17T10:17:19.444Z,13.20
2023-05-17T10:19:47.081Z,13.10
2023-05-17T10:22:23.403Z,13.10
2023-05-17T10:24:51.986Z,13.10
2023-05-17T10:27:18.989Z,13.20
2023-05-17T10:29:49.930Z,13.30
2023-05-17T10:32:23.262Z,13.30
2023-05-17T10:35:01.412Z,13.20
2023-05-17T10:37:34.307Z,13.10
2023-05-17T10:40:01.306Z,13.20
2023-05-17T10:42:28.661Z,13.30
2023-05-17T10:44:55.705Z,13.20
2023-05-17T10:47:31.484Z,13.20
2023-05-17T10:49:58.703Z,13.30
2023-05-17T10:52:25.657Z,13.20
2023-05-17T10:54:53.522Z,13.10
2023-05-17T10:57:51.196Z,13.10
2023-05-17T11:00:22.104Z,13.20
2023-05-17T11:02:50.757Z,13.20
2023-05-17T11:05:26.005Z,13.30
2023-05-17T11:07:52.984Z,13.40
2023-05-17T11:10:19.839Z,13.50
2023-05-17T11:12:54.090Z,13.40
2023-05-17T11:15:28.261Z,13.40
2023-05-17T11:17:58.284Z,13.20
2023-05-17T11:20:25.286Z,13.20
2023-05-17T11:23:06.935Z,13.20
2023-05-17T11:25:35.924Z,13.30
2023-05-17T11:28:18.178Z,13.30
2023-05-17T11:30:51.339Z,13.10
2023-05-17T11:33:29.779Z,13.30
2023-05-17T11:36:15.562Z,13.20
2023-05-17T11:38:42.404Z,13.10
2023-05-17T11:41:26.824Z,12.90
2023-05-17T11:43:55.399Z,12.80
2023-05-17T11:46:24.339Z,12.90
2023-05-17T11:48:54.352Z,12.70
2023-05-17T11:51:24.686Z,12.80
2023-05-17T11:53:55.457Z,12.90
2023-05-17T11:56:29.123Z,12.90
2023-05-17T11:59:04.206Z,12.70
2023-05-17T12:01:43.759Z,12.80
2023-05-17T12:04:10.556Z,12.80
2023-05-17T12:06:38.208Z,12.80
2023-05-17T12:09:10.476Z,12.80
2023-05-17T12:11:40.864Z,12.70
2023-05-17T12:14:07.825Z,12.60
2023-05-17T12:16:36.876Z,12.60
2023-05-17T12:19:03.949Z,12.50
2023-05-17T12:21:31.005Z,12.50
2023-05-17T12:23:57.972Z,12.40
2023-05-17T12:26:24.858Z,12.40
2023-05-17T12:28:59.898Z,12.40
2023-05-17T12:31:31.217Z,12.40
2023-05-17T12:33:59.450Z,12.30
2023-05-17T12:36:29.259Z,12.30
2023-05-17T12:38:57.068Z,12.10
2023-05-17T12:41:28.523Z,11.90
2023-05-17T12:44:06.147Z,11.70
2023-05-17T12:46:41.203Z,11.60
2023-05-17T12:49:09.842Z,11.60
2023-05-17T12:51:44.824Z,11.40
2023-05-17T12:54:13.516Z,11.10
2023-05-17T12:56:46.409Z,11.20
2023-05-17T12:59:14.860Z,11.00
2023-05-17T13:01:49.820Z,11.10
2023-05-17T13:04:18.543Z,11.00
2023-05-17T13:06:48.341Z,11.00
2023-05-17T13:09:16.190Z,10.90
2023-05-17T13:11:43.040Z,10.90
2023-05-17T13:14:12.632Z,10.90
2023-05-17T13:16:41.086Z,10.90
2023-05-17T13:19:14.492Z,10.70
2023-05-17T13:21:41.558Z,10.70
2023-05-17T13:24:10.505Z,10.60
2023-05-17T13:26:37.377Z,10.60
2023-05-17T13:29:04.278Z,10.40
2023-05-17T13:31:31.090Z,10.40
2023-05-17T13:33:58.119Z,10.40
2023-05-17T13:36:24.975Z,10.40
2023-05-17T13:38:51.874Z,10.40
2023-05-17T13:41:18.723Z,10.20
2023-05-17T13:43:46.097Z,10.30
2023-05-17T13:46:12.921Z,10.20
2023-05-17T13:48:42.476Z,10.10
2023-05-17T13:51:10.011Z,10.00
2023-05-17T13:53:38.752Z,10.10
2023-05-17T13:56:06.148Z,10.10
2023-05-17T13:58:32.998Z,10.00
2023-05-17T14:00:59.908Z,10.00
2023-05-17T14:03:27.074Z,9.90
2023-05-17T14:05:54.375Z,10.00
2023-05-17T14:08:29.426Z,9.90
2023-05-17T14:10:56.670Z,10.10
2023-05-17T14:13:23.497Z,10.10
2023-05-17T14:15:59.529Z,10.10
2023-05-17T14:18:26.574Z,10.10
2023-05-17T14:20:53.471Z,10.30
2023-05-17T14:23:20.629Z,10.40
2023-05-17T14:25:49.290Z,10.50
2023-05-17T14:28:19.419Z,10.60
2023-05-17T14:30:47.385Z,10.70
2023-05-17T14:33:14.312Z,10.50
2023-05-17T14:35:41.439Z,10.50
2023-05-17T14:38:08.236Z,10.60
2023-05-17T14:40:35.070Z,10.50
2023-05-17T14:43:01.913Z,10.40
2023-05-17T14:45:28.720Z,10.30
2023-05-17T14:47:55.902Z,10.40
2023-05-17T14:50:22.764Z,10.50
2023-05-17T14:52:49.609Z,10.60
2023-05-17T14:55:16.856Z,10.70
2023-05-17T14:57:43.915Z,10.80
2023-05-17T15:00:11.466Z,10.80
2023-05-17T15:02:38.862Z,10.90
2023-05-17T15:05:06.186Z,10.90
2023-05-17T15:07:33.861Z,10.80
2023-05-17T15:10:00.669Z,10.70
2023-05-17T15:12:27.635Z,10.70
2023-05-17T15:14:54.419Z,10.70
2023-05-17T15:17:22.120Z,10.50
2023-05-17T15:19:49.649Z,10.60
2023-05-17T15:22:17.225Z,10.60
2023-05-17T15:24:45.434Z,10.70
2023-05-17T15:27:15.946Z,10.60
2023-05-17T15:29:43.456Z,10.60
2023-05-17T15:32:10.523Z,10.70
2023-05-17T15:34:37.360Z,10.80
2023-05-17T15:37:04.331Z,10.80
2023-05-17T15:39:31.457Z,10.60
2023-05-17T15:41:58.306Z,10.40
2023-05-17T15:44:25.172Z,10.40
2023-05-17T15:46:51.963Z,10.40
2023-05-17T15:49:19.174Z,10.30
2023-05-17T15:51:46.576Z,10.40
2023-05-17T15:54:14.036Z,10.20
2023-05-17T15:56:42.030Z,10.30
2023-05-17T15:59:08.977Z,10.40
2023-05-17T16:01:36.524Z,10.40
2023-05-17T16:04:03.487Z,10.10
2023-05-17T16:06:35.794Z,10.10
2023-05-17T16:09:03.060Z,10.20
2023-05-17T16:11:30.038Z,10.30
2023-05-17T16:13:57.178Z,10.20
2023-05-17T16:16:24.039Z,10.10
2023-05-17T16:18:50.962Z,10.00
2023-05-17T16:21:18.430Z,10.00
2023-05-17T16:23:45.253Z,10.00
2023-05-17T16:26:12.713Z,10.10
2023-05-17T16:28:39.576Z,10.10
2023-05-17T16:31:06.610Z,10.10
2023-05-17T16:33:35.338Z,10.10
2023-05-17T16:36:04.190Z,10.20
2023-05-17T16:38:31.292Z,10.10
2023-05-17T16:40:58.201Z,10.20
2023-05-17T16:43:25.085Z,10.20
2023-05-17T16:45:53.063Z,10.30
2023-05-17T16:48:19.963Z,10.40
2023-05-17T16:50:48.451Z,10.30
2023-05-17T16:53:16.317Z,10.20
2023-05-17T16:55:43.242Z,10.00
2023-05-17T16:58:10.135Z,10.00
2023-05-17T17:00:37.275Z,9.90
2023-05-17T17:03:06.577Z,9.70
2023-05-17T17:05:36.067Z,9.90
2023-05-17T17:08:03.033Z,10.00
2023-05-17T17:10:30.284Z,10.10
2023-05-17T17:12:57.359Z,10.10
2023-05-17T17:15:24.325Z,10.00
2023-05-17T17:17:51.338Z,9.80
2023-05-17T17:20:18.331Z,9.90
2023-05-17T17:22:45.126Z,10.00
2023-05-17T17:25:12.117Z,9.90
2023-05-17T17:27:38.959Z,9.90
2023-05-17T17:30:06.364Z,9.90
2023-05-17T17:32:33.431Z,9.80
2023-05-17T17:35:00.573Z,9.80
2023-05-17T17:37:27.396Z,9.90
2023-05-17T17:39:54.265Z,9.80
2023-05-17T17:42:21.108Z,9.70
2023-05-17T17:44:47.986Z,9.70
2023-05-17T17:47:14.996Z,9.70
2023-05-17T17:49:41.958Z,9.70
2023-05-17T17:52:08.847Z,9.70
2023-05-17T17:54:35.761Z,9.70
2023-05-17T17:57:03.190Z,9.60
2023-05-17T17:59:30.162Z,9.50
2023-05-17T18:01:57.100Z,9.60
2023-05-17T18:04:23.984Z,9.50
2023-05-17T18:06:50.985Z,9.50
2023-05-17T18:09:17.859Z,9.40
2023-05-17T18:11:44.697Z,9.40
2023-05-17T18:14:12.187Z,9.50
2023-05-17T18:16:39.073Z,9.50
2023-05-17T18:19:05.944Z,9.40
2023-05-17T18:21:33.311Z,9.40
2023-05-17T18:24:00.552Z,9.30
2023-05-17T18:26:27.388Z,9.00
2023-05-17T18:28:54.240Z,9.10
2023-05-17T18:31:21.087Z,9.00
2023-05-17T18:33:47.938Z,8.90
2023-05-17T18:36:14.743Z,8.70
2023-05-17T18:38:41.686Z,8.70
2023-05-17T18:41:08.647Z,8.80
2023-05-17T18:43:35.619Z,8.90
2023-05-17T18:46:02.442Z,8.90
2023-05-17T18:48:29.339Z,8.70
2023-05-17T18:50:57.542Z,8.40
2023-05-17T18:53:24.614Z,8.40
2023-05-17T18:55:51.464Z,8.30
2023-05-17T18:58:18.308Z,8.30
2023-05-17T19:00:48.297Z,8.20
2023-05-17T19:03:18.056Z,8.20
2023-05-17T19:05:44.917Z,8.20
2023-05-17T19:08:11.729Z,8.30
2023-05-17T19:10:38.573Z,8.30
2023-05-17T19:13:06.712Z,8.30
2023-05-17T19:15:33.787Z,8.30
2023-05-17T19:18:00.760Z,8.20
2023-05-17T19:20:27.892Z,8.30
2023-05-17T19:22:55.106Z,8.40
2023-05-17T19:25:21.980Z,8.50
2023-05-17T19:27:48.777Z,8.40
2023-05-17T19:30:15.760Z,8.40
2023-05-17T19:32:42.754Z,8.50
2023-05-17T19:35:10.790Z,8.50
2023-05-17T19:37:37.963Z,8.60
2023-05-17T19:40:08.223Z,8.70
2023-05-17T19:42:35.132Z,8.50
2023-05-17T19:45:01.970Z,8.30
2023-05-17T19:47:28.857Z,8.50
2023-05-17T19:49:55.970Z,8.50
2023-05-17T19:52:22.783Z,8.60
2023-05-17T19:54:49.630Z,8.70
2023-05-17T19:57:16.565Z,8.70
2023-05-17T19:59:43.921Z,8.50
2023-05-17T20:02:10.910Z,8.50
2023-05-17T20:04:37.861Z,8.50
2023-05-17T20:07:04.654Z,8.50
2023-05-17T20:09:32.258Z,8.50
2023-05-17T20:11:59.259Z,8.40
2023-05-17T20:14:27.559Z,8.40
2023-05-17T20:16:54.517Z,8.30
2023-05-17T20:19:21.483Z,8.40
2023-05-17T20:21:48.665Z,8.40
2023-05-17T20:24:15.660Z,8.60
2023-05-17T20:26:46.797Z,8.60
2023-05-17T20:29:13.674Z,8.70
2023-05-17T20:31:40.729Z,8.60
2023-05-17T20:34:07.645Z,8.50
2023-05-17T20:36:34.550Z,8.40
2023-05-17T20:39:01.443Z,8.40
2023-05-17T20:41:28.332Z,8.30
2023-05-17T20:43:55.447Z,8.30
2023-05-17T20:46:22.372Z,8.40
2023-05-17T20:48:49.941Z,8.50
2023-05-17T20:51:19.760Z,8.60
2023-05-17T20:53:46.750Z,8.70
2023-05-17T20:56:19.289Z,8.70
2023-05-17T20:58:48.410Z,8.50
2023-05-17T21:01:15.636Z,8.40
2023-05-17T21:03:43.457Z,8.40
2023-05-17T21:06:10.517Z,8.50
2023-05-17T21:08:37.744Z,8.50
2023-05-17T21:11:04.742Z,8.40
2023-05-17T21:13:31.555Z,8.50
2023-05-17T21:15:58.563Z,8.50
2023-05-17T21:18:25.584Z,8.50
2023-05-17T21:20:53.347Z,8.50
2023-05-17T21:23:20.344Z,8.40
2023-05-17T21:25:47.472Z,8.50
2023-05-17T21:28:14.448Z,8.50
2023-05-17T21:30:41.292Z,8.50
2023-05-17T21:33:08.321Z,8.50
2023-05-17T21:35:35.169Z,8.60
2023-05-17T21:38:02.079Z,8.50
2023-05-17T21:40:29.269Z,8.50
2023-05-17T21:42:56.257Z,8.40
2023-05-17T21:45:23.148Z,8.40
2023-05-17T21:47:50.063Z,8.50
2023-05-17T21:50:16.936Z,8.50
2023-05-17T21:52:44.016Z,8.50
2023-05-17T21:55:10.959Z,8.50
2023-05-17T21:57:37.918Z,8.40
2023-05-17T22:00:05.879Z,8.50
2023-05-17T22:02:34.764Z,8.50
2023-05-17T22:05:01.940Z,8.40
2023-05-17T22:07:28.786Z,8.40
2023-05-17T22:09:55.715Z,8.40
2023-05-17T22:12:25.719Z,8.40
2023-05-17T22:14:56.888Z,8.40
2023-05-17T22:17:35.064Z,8.40
2023-05-17T22:20:10.233Z,8.30
2023-05-17T22:22:37.513Z,8.30
2023-05-17T22:25:05.217Z,8.40
2023-05-17T22:27:32.136Z,8.30
2023-05-17T22:29:58.946Z,8.30
2023-05-17T22:32:25.947Z,8.40
2023-05-17T22:34:53.089Z,8.40
2023-05-17T22:37:22.802Z,8.40
2023-05-17T22:39:49.703Z,8.30
2023-05-17T22:42:16.566Z,8.40
2023-05-17T22:44:43.376Z,8.40
2023-05-17T22:47:14.539Z,8.30
2023-05-17T22:49:42.177Z,8.40
2023-05-17T22:52:11.043Z,8.40
2023-05-17T22:54:38.687Z,8.50
2023-05-17T22:57:06.095Z,8.40
2023-05-17T22:59:33.249Z,8.30
2023-05-17T23:02:01.497Z,8.40
2023-05-17T23:04:30.148Z,8.50
2023-05-17T23:07:02.765Z,8.30
2023-05-17T23:09:30.247Z,8.40
2023-05-17T23:12:00.423Z,8.40
2023-05-17T23:14:27.438Z,8.30
2023-05-17T23:16:54.382Z,8.40
2023-05-17T23:19:23.547Z,8.50
2023-05-17T23:21:50.511Z,8.50
2023-05-17T23:24:17.677Z,8.30
2023-05-17T23:26:44.480Z,8.30
2023-05-17T23:29:12.631Z,8.30
2023-05-17T23:31:41.117Z,8.40
2023-05-17T23:34:08.044Z,8.40
2023-05-17T23:36:34.893Z,8.40
2023-05-17T23:39:01.879Z,8.40
2023-05-17T23:41:29.558Z,8.50
2023-05-17T23:43:57.236Z,8.30
2023-05-17T23:46:24.373Z,8.30
2023-05-17T23:48:51.392Z,8.20
2023-05-17T23:51:19.819Z,8.10
2023-05-17T23:53:48.948Z,8.20
2023-05-17T23:56:17.542Z,8.30
2023-05-17T23:58:47.871Z,8.20
